sensor_id;sensor_type;location;lat;lon;timestamp;pressure;altitude;pressure_sealevel;temperature;humidity
75551;BME280;65071;53.082;18.218;2022-11-20T00:00:54;100804.76;;;-1.07;81.30
75551;BME280;65071;53.082;18.218;2022-11-20T00:03:20;100803.83;;;-1.06;81.24
75551;BME280;65071;53.082;18.218;2022-11-20T00:05:46;100800.66;;;-1.06;81.26
75551;BME280;65071;53.082;18.218;2022-11-20T00:08:13;100801.02;;;-1.10;81.48
75551;BME280;65071;53.082;18.218;2022-11-20T00:10:40;100799.52;;;-1.12;81.25
75551;BME280;65071;53.082;18.218;2022-11-20T00:13:07;100799.98;;;-1.14;81.42
75551;BME280;65071;53.082;18.218;2022-11-20T00:15:33;100802.77;;;-1.07;81.32
75551;BME280;65071;53.082;18.218;2022-11-20T00:17:59;100802.09;;;-1.04;81.36
75551;BME280;65071;53.082;18.218;2022-11-20T00:20:25;100803.86;;;-1.07;81.38
75551;BME280;65071;53.082;18.218;2022-11-20T00:22:51;100804.88;;;-1.10;81.58
75551;BME280;65071;53.082;18.218;2022-11-20T00:25:18;100810.27;;;-1.11;81.54
75551;BME280;65071;53.082;18.218;2022-11-20T00:27:44;100803.48;;;-1.17;81.73
75551;BME280;65071;53.082;18.218;2022-11-20T00:30:10;100816.77;;;-1.04;81.47
75551;BME280;65071;53.082;18.218;2022-11-20T00:32:37;100815.28;;;-1.03;81.60
75551;BME280;65071;53.082;18.218;2022-11-20T00:35:04;100817.66;;;-1.01;81.43
75551;BME280;65071;53.082;18.218;2022-11-20T00:37:31;100801.86;;;-1.09;81.69
75551;BME280;65071;53.082;18.218;2022-11-20T00:39:57;100812.93;;;-1.05;81.55
75551;BME280;65071;53.082;18.218;2022-11-20T00:42:23;100809.83;;;-1.07;81.49
75551;BME280;65071;53.082;18.218;2022-11-20T00:44:49;100807.55;;;-1.07;81.44
75551;BME280;65071;53.082;18.218;2022-11-20T00:47:15;100809.10;;;-0.99;81.48
75551;BME280;65071;53.082;18.218;2022-11-20T00:49:41;100808.70;;;-0.95;81.57
75551;BME280;65071;53.082;18.218;2022-11-20T00:52:07;100810.02;;;-1.00;81.53
75551;BME280;65071;53.082;18.218;2022-11-20T00:54:33;100812.21;;;-1.05;81.55
75551;BME280;65071;53.082;18.218;2022-11-20T00:56:59;100808.98;;;-1.07;81.79
75551;BME280;65071;53.082;18.218;2022-11-20T00:59:25;100812.77;;;-1.09;81.53
75551;BME280;65071;53.082;18.218;2022-11-20T01:01:51;100814.58;;;-0.99;81.69
75551;BME280;65071;53.082;18.218;2022-11-20T01:04:17;100813.61;;;-0.94;81.38
75551;BME280;65071;53.082;18.218;2022-11-20T01:06:43;100813.68;;;-0.92;81.41
75551;BME280;65071;53.082;18.218;2022-11-20T01:09:11;100815.77;;;-0.95;81.59
75551;BME280;65071;53.082;18.218;2022-11-20T01:11:41;100815.21;;;-0.98;81.73
75551;BME280;65071;53.082;18.218;2022-11-20T01:14:13;100810.82;;;-0.98;81.55
75551;BME280;65071;53.082;18.218;2022-11-20T01:16:45;100811.50;;;-0.91;81.43
75551;BME280;65071;53.082;18.218;2022-11-20T01:19:17;100807.01;;;-0.86;81.20
75551;BME280;65071;53.082;18.218;2022-11-20T01:21:45;100806.30;;;-0.83;81.48
75551;BME280;65071;53.082;18.218;2022-11-20T01:24:15;100800.02;;;-0.85;81.28
75551;BME280;65071;53.082;18.218;2022-11-20T01:26:42;100796.89;;;-0.85;81.32
75551;BME280;65071;53.082;18.218;2022-11-20T01:29:13;100794.48;;;-0.86;81.45
75551;BME280;65071;53.082;18.218;2022-11-20T01:31:40;100796.67;;;-0.88;81.34
75551;BME280;65071;53.082;18.218;2022-11-20T01:34:11;100797.79;;;-0.89;81.43
75551;BME280;65071;53.082;18.218;2022-11-20T01:36:39;100801.58;;;-0.81;81.44
75551;BME280;65071;53.082;18.218;2022-11-20T01:39:17;100806.11;;;-0.76;81.28
75551;BME280;65071;53.082;18.218;2022-11-20T01:41:44;100806.81;;;-0.79;81.44
75551;BME280;65071;53.082;18.218;2022-11-20T01:44:49;100803.84;;;-0.83;81.26
75551;BME280;65071;53.082;18.218;2022-11-20T01:47:21;100804.20;;;-0.87;81.07
75551;BME280;65071;53.082;18.218;2022-11-20T01:49:54;100806.83;;;-0.90;81.29
75551;BME280;65071;53.082;18.218;2022-11-20T01:52:43;100808.10;;;-0.83;81.16
75551;BME280;65071;53.082;18.218;2022-11-20T01:55:31;100801.96;;;-0.81;81.26
75551;BME280;65071;53.082;18.218;2022-11-20T01:57:59;100800.30;;;-0.80;81.15
75551;BME280;65071;53.082;18.218;2022-11-20T02:00:26;100798.73;;;-0.83;81.26
75551;BME280;65071;53.082;18.218;2022-11-20T02:02:58;100799.42;;;-0.86;81.40
75551;BME280;65071;53.082;18.218;2022-11-20T02:05:39;100799.66;;;-0.91;81.27
75551;BME280;65071;53.082;18.218;2022-11-20T02:08:07;100800.30;;;-0.90;81.47
75551;BME280;65071;53.082;18.218;2022-11-20T02:10:34;100799.65;;;-0.87;81.31
75551;BME280;65071;53.082;18.218;2022-11-20T02:13:00;100796.28;;;-0.87;81.42
75551;BME280;65071;53.082;18.218;2022-11-20T02:15:45;100790.83;;;-0.94;81.43
75551;BME280;65071;53.082;18.218;2022-11-20T02:18:14;100791.64;;;-0.96;81.33
75551;BME280;65071;53.082;18.218;2022-11-20T02:20:42;100787.50;;;-0.98;81.20
75551;BME280;65071;53.082;18.218;2022-11-20T02:25:45;100785.63;;;-1.06;81.25
75551;BME280;65071;53.082;18.218;2022-11-20T02:28:13;100782.01;;;-1.07;81.03
75551;BME280;65071;53.082;18.218;2022-11-20T02:30:39;100783.06;;;-0.98;81.22
75551;BME280;65071;53.082;18.218;2022-11-20T02:33:05;100780.73;;;-0.94;81.26
75551;BME280;65071;53.082;18.218;2022-11-20T02:37:59;100756.63;;;-1.01;81.36
75551;BME280;65071;53.082;18.218;2022-11-20T02:40:26;100771.50;;;-0.93;81.55
75551;BME280;65071;53.082;18.218;2022-11-20T02:42:56;100756.75;;;-1.07;81.37
75551;BME280;65071;53.082;18.218;2022-11-20T02:45:23;100767.45;;;-1.03;81.57
75551;BME280;65071;53.082;18.218;2022-11-20T02:47:50;100766.05;;;-1.06;81.46
75551;BME280;65071;53.082;18.218;2022-11-20T02:50:17;100768.25;;;-1.08;81.50
75551;BME280;65071;53.082;18.218;2022-11-20T02:52:43;100775.35;;;-1.02;81.39
75551;BME280;65071;53.082;18.218;2022-11-20T02:55:09;100776.96;;;-0.99;81.47
75551;BME280;65071;53.082;18.218;2022-11-20T02:57:36;100777.96;;;-0.98;81.67
75551;BME280;65071;53.082;18.218;2022-11-20T03:00:03;100776.23;;;-1.02;81.66
75551;BME280;65071;53.082;18.218;2022-11-20T03:02:30;100779.18;;;-1.04;81.73
75551;BME280;65071;53.082;18.218;2022-11-20T03:04:57;100781.27;;;-1.04;81.70
75551;BME280;65071;53.082;18.218;2022-11-20T03:07:23;100783.13;;;-1.06;81.61
75551;BME280;65071;53.082;18.218;2022-11-20T03:09:49;100781.45;;;-1.07;81.75
75551;BME280;65071;53.082;18.218;2022-11-20T03:12:15;100782.80;;;-0.99;81.51
75551;BME280;65071;53.082;18.218;2022-11-20T03:14:41;100777.80;;;-0.95;81.69
75551;BME280;65071;53.082;18.218;2022-11-20T03:17:08;100776.41;;;-0.99;81.80
75551;BME280;65071;53.082;18.218;2022-11-20T03:19:34;100776.17;;;-1.04;81.68
75551;BME280;65071;53.082;18.218;2022-11-20T03:22:00;100771.11;;;-1.05;81.72
75551;BME280;65071;53.082;18.218;2022-11-20T03:24:26;100774.08;;;-1.08;81.68
75551;BME280;65071;53.082;18.218;2022-11-20T03:26:52;100773.66;;;-1.00;81.66
75551;BME280;65071;53.082;18.218;2022-11-20T03:29:19;100774.84;;;-0.96;81.59
75551;BME280;65071;53.082;18.218;2022-11-20T03:31:45;100770.11;;;-1.00;81.53
75551;BME280;65071;53.082;18.218;2022-11-20T03:34:11;100767.62;;;-1.02;81.64
75551;BME280;65071;53.082;18.218;2022-11-20T03:36:39;100766.08;;;-1.03;81.68
75551;BME280;65071;53.082;18.218;2022-11-20T03:39:06;100771.18;;;-1.03;81.62
75551;BME280;65071;53.082;18.218;2022-11-20T03:41:36;100768.74;;;-0.94;81.67
75551;BME280;65071;53.082;18.218;2022-11-20T03:44:05;100773.98;;;-0.93;81.67
75551;BME280;65071;53.082;18.218;2022-11-20T03:46:32;100774.94;;;-0.97;81.95
75551;BME280;65071;53.082;18.218;2022-11-20T03:48:58;100774.13;;;-0.99;81.64
75551;BME280;65071;53.082;18.218;2022-11-20T03:51:29;100774.32;;;-1.03;81.62
75551;BME280;65071;53.082;18.218;2022-11-20T03:53:58;100774.73;;;-1.03;81.78
75551;BME280;65071;53.082;18.218;2022-11-20T03:56:26;100773.48;;;-0.97;81.73
75551;BME280;65071;53.082;18.218;2022-11-20T03:58:53;100773.31;;;-0.93;81.67
75551;BME280;65071;53.082;18.218;2022-11-20T04:01:24;100775.69;;;-0.92;82.10
75551;BME280;65071;53.082;18.218;2022-11-20T04:03:52;100772.94;;;-0.96;81.93
75551;BME280;65071;53.082;18.218;2022-11-20T04:06:21;100772.11;;;-1.04;81.96
75551;BME280;65071;53.082;18.218;2022-11-20T04:08:47;100769.36;;;-1.09;81.85
75551;BME280;65071;53.082;18.218;2022-11-20T04:11:16;100771.64;;;-1.02;82.00
75551;BME280;65071;53.082;18.218;2022-11-20T04:13:46;100771.38;;;-1.03;81.90
75551;BME280;65071;53.082;18.218;2022-11-20T04:16:13;100775.23;;;-1.09;81.82
75551;BME280;65071;53.082;18.218;2022-11-20T04:18:39;100773.95;;;-1.15;82.05
75551;BME280;65071;53.082;18.218;2022-11-20T04:21:06;100769.20;;;-1.19;82.10
75551;BME280;65071;53.082;18.218;2022-11-20T04:23:32;100763.13;;;-1.14;82.11
75551;BME280;65071;53.082;18.218;2022-11-20T04:26:07;100764.09;;;-1.06;82.11
75551;BME280;65071;53.082;18.218;2022-11-20T04:28:34;100765.02;;;-1.04;82.06
75551;BME280;65071;53.082;18.218;2022-11-20T04:31:18;100763.78;;;-1.00;82.26
75551;BME280;65071;53.082;18.218;2022-11-20T04:33:45;100764.61;;;-1.02;82.50
75551;BME280;65071;53.082;18.218;2022-11-20T04:36:15;100760.56;;;-1.06;82.17
75551;BME280;65071;53.082;18.218;2022-11-20T04:38:41;100759.63;;;-1.08;82.19
75551;BME280;65071;53.082;18.218;2022-11-20T04:41:15;100750.65;;;-1.09;82.05
75551;BME280;65071;53.082;18.218;2022-11-20T04:43:41;100752.72;;;-1.01;82.21
75551;BME280;65071;53.082;18.218;2022-11-20T04:46:07;100749.27;;;-0.99;82.21
75551;BME280;65071;53.082;18.218;2022-11-20T04:48:34;100750.90;;;-1.03;82.21
75551;BME280;65071;53.082;18.218;2022-11-20T04:51:03;100750.88;;;-1.06;82.17
75551;BME280;65071;53.082;18.218;2022-11-20T04:53:29;100745.61;;;-1.10;82.16
75551;BME280;65071;53.082;18.218;2022-11-20T04:56:03;100747.63;;;-1.08;82.52
75551;BME280;65071;53.082;18.218;2022-11-20T04:58:30;100748.14;;;-1.01;82.40
75551;BME280;65071;53.082;18.218;2022-11-20T05:01:03;100748.30;;;-1.01;82.42
75551;BME280;65071;53.082;18.218;2022-11-20T05:03:30;100745.44;;;-1.07;82.42
75551;BME280;65071;53.082;18.218;2022-11-20T05:06:00;100743.75;;;-1.12;82.30
75551;BME280;65071;53.082;18.218;2022-11-20T05:08:27;100737.77;;;-1.15;82.40
75551;BME280;65071;53.082;18.218;2022-11-20T05:10:53;100733.22;;;-1.16;82.55
75551;BME280;65071;53.082;18.218;2022-11-20T05:13:19;100733.33;;;-1.14;82.19
75551;BME280;65071;53.082;18.218;2022-11-20T05:15:45;100739.55;;;-1.12;82.44
75551;BME280;65071;53.082;18.218;2022-11-20T05:18:11;100735.30;;;-1.12;82.49
75551;BME280;65071;53.082;18.218;2022-11-20T05:20:37;100733.71;;;-1.19;82.66
75551;BME280;65071;53.082;18.218;2022-11-20T05:23:03;100737.33;;;-1.17;82.49
75551;BME280;65071;53.082;18.218;2022-11-20T05:25:29;100734.31;;;-1.23;82.54
75551;BME280;65071;53.082;18.218;2022-11-20T05:27:55;100730.52;;;-1.25;82.66
75551;BME280;65071;53.082;18.218;2022-11-20T05:30:21;100730.35;;;-1.19;82.56
75551;BME280;65071;53.082;18.218;2022-11-20T05:32:47;100730.21;;;-1.16;82.53
75551;BME280;65071;53.082;18.218;2022-11-20T05:35:13;100733.70;;;-1.15;82.74
75551;BME280;65071;53.082;18.218;2022-11-20T05:37:39;100733.54;;;-1.19;82.59
75551;BME280;65071;53.082;18.218;2022-11-20T05:40:06;100735.96;;;-1.21;82.70
75551;BME280;65071;53.082;18.218;2022-11-20T05:42:32;100737.73;;;-1.21;82.77
75551;BME280;65071;53.082;18.218;2022-11-20T05:45:00;100740.55;;;-1.14;82.78
75551;BME280;65071;53.082;18.218;2022-11-20T05:47:28;100739.17;;;-1.12;82.87
75551;BME280;65071;53.082;18.218;2022-11-20T05:49:54;100741.86;;;-1.09;82.89
75551;BME280;65071;53.082;18.218;2022-11-20T05:52:20;100739.61;;;-1.13;82.89
75551;BME280;65071;53.082;18.218;2022-11-20T05:54:46;100740.86;;;-1.17;82.96
75551;BME280;65071;53.082;18.218;2022-11-20T05:57:12;100736.87;;;-1.18;83.26
75551;BME280;65071;53.082;18.218;2022-11-20T05:59:38;100734.55;;;-1.11;83.01
75551;BME280;65071;53.082;18.218;2022-11-20T06:02:04;100734.66;;;-1.07;83.10
75551;BME280;65071;53.082;18.218;2022-11-20T06:04:32;100737.31;;;-1.10;82.89
75551;BME280;65071;53.082;18.218;2022-11-20T06:06:58;100739.90;;;-1.12;83.02
75551;BME280;65071;53.082;18.218;2022-11-20T06:09:24;100744.11;;;-1.15;83.04
75551;BME280;65071;53.082;18.218;2022-11-20T06:11:50;100741.98;;;-1.15;83.11
75551;BME280;65071;53.082;18.218;2022-11-20T06:14:16;100742.49;;;-1.05;82.71
75551;BME280;65071;53.082;18.218;2022-11-20T06:16:42;100746.32;;;-1.00;83.18
75551;BME280;65071;53.082;18.218;2022-11-20T06:19:08;100745.64;;;-1.04;83.08
75551;BME280;65071;53.082;18.218;2022-11-20T06:21:34;100746.33;;;-1.07;83.11
75551;BME280;65071;53.082;18.218;2022-11-20T06:24:00;100740.74;;;-1.08;82.81
75551;BME280;65071;53.082;18.218;2022-11-20T06:26:27;100737.85;;;-1.10;82.72
75551;BME280;65071;53.082;18.218;2022-11-20T06:28:54;100725.38;;;-1.11;82.84
75551;BME280;65071;53.082;18.218;2022-11-20T06:31:23;100743.02;;;-0.98;82.91
75551;BME280;65071;53.082;18.218;2022-11-20T06:33:51;100741.73;;;-0.97;83.01
75551;BME280;65071;53.082;18.218;2022-11-20T06:36:20;100741.84;;;-1.02;83.15
75551;BME280;65071;53.082;18.218;2022-11-20T06:38:46;100740.98;;;-1.03;82.83
75551;BME280;65071;53.082;18.218;2022-11-20T06:41:15;100733.55;;;-1.06;83.00
75551;BME280;65071;53.082;18.218;2022-11-20T06:43:42;100730.06;;;-1.07;82.59
75551;BME280;65071;53.082;18.218;2022-11-20T06:46:10;100728.02;;;-0.98;82.85
75551;BME280;65071;53.082;18.218;2022-11-20T06:48:36;100726.73;;;-0.94;82.80
75551;BME280;65071;53.082;18.218;2022-11-20T06:51:04;100730.55;;;-0.93;83.16
75551;BME280;65071;53.082;18.218;2022-11-20T06:53:30;100732.98;;;-0.92;83.08
75551;BME280;65071;53.082;18.218;2022-11-20T06:55:56;100732.91;;;-0.94;82.99
75551;BME280;65071;53.082;18.218;2022-11-20T06:58:26;100734.27;;;-0.96;82.95
75551;BME280;65071;53.082;18.218;2022-11-20T07:00:52;100732.46;;;-0.95;82.81
75551;BME280;65071;53.082;18.218;2022-11-20T07:03:18;100733.61;;;-0.87;82.92
75551;BME280;65071;53.082;18.218;2022-11-20T07:05:44;100736.81;;;-0.78;82.57
75551;BME280;65071;53.082;18.218;2022-11-20T07:08:12;100737.11;;;-0.70;82.65
75551;BME280;65071;53.082;18.218;2022-11-20T07:10:38;100735.73;;;-0.71;82.86
75551;BME280;65071;53.082;18.218;2022-11-20T07:13:04;100733.64;;;-0.72;82.74
75551;BME280;65071;53.082;18.218;2022-11-20T07:15:30;100732.66;;;-0.69;82.78
75551;BME280;65071;53.082;18.218;2022-11-20T07:17:59;100725.19;;;-0.72;82.45
75551;BME280;65071;53.082;18.218;2022-11-20T07:20:25;100722.04;;;-0.76;82.41
75551;BME280;65071;53.082;18.218;2022-11-20T07:22:55;100719.73;;;-0.66;82.51
75551;BME280;65071;53.082;18.218;2022-11-20T07:25:25;100723.54;;;-0.61;82.41
75551;BME280;65071;53.082;18.218;2022-11-20T07:27:52;100727.91;;;-0.60;82.68
75551;BME280;65071;53.082;18.218;2022-11-20T07:30:19;100727.13;;;-0.62;82.72
75551;BME280;65071;53.082;18.218;2022-11-20T07:32:51;100726.77;;;-0.62;82.63
75551;BME280;65071;53.082;18.218;2022-11-20T07:35:18;100726.22;;;-0.61;82.13
75551;BME280;65071;53.082;18.218;2022-11-20T07:37:44;100725.83;;;-0.61;82.18
75551;BME280;65071;53.082;18.218;2022-11-20T07:40:18;100711.76;;;-0.65;82.10
75551;BME280;65071;53.082;18.218;2022-11-20T07:42:51;100709.80;;;-0.52;81.86
75551;BME280;65071;53.082;18.218;2022-11-20T07:45:22;100718.30;;;-0.37;81.90
75551;BME280;65071;53.082;18.218;2022-11-20T07:47:49;100718.26;;;-0.30;81.98
75551;BME280;65071;53.082;18.218;2022-11-20T07:50:15;100715.77;;;-0.20;82.09
75551;BME280;65071;53.082;18.218;2022-11-20T07:52:42;100716.48;;;-0.17;81.67
75551;BME280;65071;53.082;18.218;2022-11-20T07:55:09;100714.75;;;-0.15;81.59
75551;BME280;65071;53.082;18.218;2022-11-20T07:57:35;100713.05;;;-0.13;81.47
75551;BME280;65071;53.082;18.218;2022-11-20T08:00:02;100713.21;;;-0.07;81.25
75551;BME280;65071;53.082;18.218;2022-11-20T08:02:39;100718.39;;;0.05;81.47
75551;BME280;65071;53.082;18.218;2022-11-20T08:05:06;100715.52;;;0.15;81.37
75551;BME280;65071;53.082;18.218;2022-11-20T08:07:40;100714.67;;;0.17;81.34
75551;BME280;65071;53.082;18.218;2022-11-20T08:10:08;100711.48;;;0.20;80.88
75551;BME280;65071;53.082;18.218;2022-11-20T08:12:35;100711.13;;;0.18;80.65
75551;BME280;65071;53.082;18.218;2022-11-20T08:15:20;100706.64;;;0.22;80.83
75551;BME280;65071;53.082;18.218;2022-11-20T08:17:46;100706.30;;;0.33;80.65
75551;BME280;65071;53.082;18.218;2022-11-20T08:20:12;100709.20;;;0.41;80.43
75551;BME280;65071;53.082;18.218;2022-11-20T08:22:38;100709.20;;;0.41;80.01
75551;BME280;65071;53.082;18.218;2022-11-20T08:25:04;100711.89;;;0.40;80.02
75551;BME280;65071;53.082;18.218;2022-11-20T08:27:31;100708.31;;;0.47;79.80
75551;BME280;65071;53.082;18.218;2022-11-20T08:29:58;100705.85;;;0.61;79.85
75551;BME280;65071;53.082;18.218;2022-11-20T08:32:24;100702.79;;;0.71;79.32
75551;BME280;65071;53.082;18.218;2022-11-20T08:34:50;100702.88;;;0.67;79.64
75551;BME280;65071;53.082;18.218;2022-11-20T08:37:16;100698.02;;;0.71;79.69
75551;BME280;65071;53.082;18.218;2022-11-20T08:39:42;100697.91;;;0.76;79.25
75551;BME280;65071;53.082;18.218;2022-11-20T08:42:08;100695.06;;;0.76;79.20
75551;BME280;65071;53.082;18.218;2022-11-20T08:44:34;100690.76;;;0.91;79.45
75551;BME280;65071;53.082;18.218;2022-11-20T08:47:00;100690.08;;;1.02;78.56
75551;BME280;65071;53.082;18.218;2022-11-20T08:49:26;100692.30;;;0.98;78.15
75551;BME280;65071;53.082;18.218;2022-11-20T08:51:52;100684.30;;;0.89;77.92
75551;BME280;65071;53.082;18.218;2022-11-20T08:54:20;100689.09;;;0.81;78.23
75551;BME280;65071;53.082;18.218;2022-11-20T08:56:48;100684.88;;;0.80;78.18
75551;BME280;65071;53.082;18.218;2022-11-20T08:59:14;100685.70;;;0.84;78.29
75551;BME280;65071;53.082;18.218;2022-11-20T09:01:40;100683.37;;;0.93;78.15
75551;BME280;65071;53.082;18.218;2022-11-20T09:04:06;100681.58;;;0.94;78.44
75551;BME280;65071;53.082;18.218;2022-11-20T09:06:32;100682.30;;;0.91;78.38
75551;BME280;65071;53.082;18.218;2022-11-20T09:08:58;100678.15;;;0.89;77.87
75551;BME280;65071;53.082;18.218;2022-11-20T09:11:24;100676.80;;;0.88;77.73
75551;BME280;65071;53.082;18.218;2022-11-20T09:13:50;100676.44;;;0.85;77.90
75551;BME280;65071;53.082;18.218;2022-11-20T09:16:16;100670.77;;;0.88;77.51
75551;BME280;65071;53.082;18.218;2022-11-20T09:18:42;100669.94;;;0.96;77.31
75551;BME280;65071;53.082;18.218;2022-11-20T09:21:11;100670.34;;;1.00;77.67
75551;BME280;65071;53.082;18.218;2022-11-20T09:23:38;100666.71;;;0.96;77.78
75551;BME280;65071;53.082;18.218;2022-11-20T09:26:06;100665.56;;;1.03;77.69
75551;BME280;65071;53.082;18.218;2022-11-20T09:28:33;100665.88;;;1.15;77.59
75551;BME280;65071;53.082;18.218;2022-11-20T09:30:59;100660.66;;;1.24;77.17
75551;BME280;65071;53.082;18.218;2022-11-20T09:33:25;100660.42;;;1.31;77.10
75551;BME280;65071;53.082;18.218;2022-11-20T09:35:52;100658.70;;;1.44;76.64
75551;BME280;65071;53.082;18.218;2022-11-20T09:38:18;100656.40;;;1.58;76.36
75551;BME280;65071;53.082;18.218;2022-11-20T09:40:49;100657.63;;;1.66;76.27
75551;BME280;65071;53.082;18.218;2022-11-20T09:46:21;100656.88;;;1.75;76.42
75551;BME280;65071;53.082;18.218;2022-11-20T09:54:19;100652.14;;;1.80;75.42
75551;BME280;65071;53.082;18.218;2022-11-20T09:57:20;100655.86;;;1.77;75.52
75551;BME280;65071;53.082;18.218;2022-11-20T09:59:45;100657.52;;;1.65;75.72
75551;BME280;65071;53.082;18.218;2022-11-20T10:05:19;100657.20;;;1.18;75.51
75551;BME280;65071;53.082;18.218;2022-11-20T10:24:42;100639.89;;;1.25;75.59
75551;BME280;65071;53.082;18.218;2022-11-20T10:30:03;100635.23;;;1.35;75.69
75551;BME280;65071;53.082;18.218;2022-11-20T10:32:45;100634.42;;;1.39;75.72
75551;BME280;65071;53.082;18.218;2022-11-20T10:35:23;100629.29;;;1.41;75.73
75551;BME280;65071;53.082;18.218;2022-11-20T10:37:58;100631.18;;;1.42;75.54
75551;BME280;65071;53.082;18.218;2022-11-20T10:40:34;100627.69;;;1.47;75.62
75551;BME280;65071;53.082;18.218;2022-11-20T10:43:06;100625.70;;;1.51;75.30
75551;BME280;65071;53.082;18.218;2022-11-20T10:50:35;100627.92;;;1.65;75.46
75551;BME280;65071;53.082;18.218;2022-11-20T10:53:15;100630.82;;;1.56;75.02
75551;BME280;65071;53.082;18.218;2022-11-20T10:55:55;100628.48;;;1.40;75.37
75551;BME280;65071;53.082;18.218;2022-11-20T10:58:41;100622.27;;;1.32;75.71
75551;BME280;65071;53.082;18.218;2022-11-20T11:01:16;100624.57;;;1.30;75.53
75551;BME280;65071;53.082;18.218;2022-11-20T11:03:43;100623.00;;;1.32;75.43
75551;BME280;65071;53.082;18.218;2022-11-20T11:08:56;100626.23;;;1.42;75.23
75551;BME280;65071;53.082;18.218;2022-11-20T11:11:28;100623.73;;;1.45;75.54
75551;BME280;65071;53.082;18.218;2022-11-20T11:14:08;100623.96;;;1.53;75.52
75551;BME280;65071;53.082;18.218;2022-11-20T11:16:35;100622.36;;;1.50;75.29
75551;BME280;65071;53.082;18.218;2022-11-20T11:19:13;100621.24;;;1.40;75.26
75551;BME280;65071;53.082;18.218;2022-11-20T11:21:49;100622.14;;;1.29;75.09
75551;BME280;65071;53.082;18.218;2022-11-20T11:24:29;100620.46;;;1.19;75.09
75551;BME280;65071;53.082;18.218;2022-11-20T11:27:11;100619.20;;;1.14;75.52
75551;BME280;65071;53.082;18.218;2022-11-20T11:29:37;100621.96;;;1.06;75.67
75551;BME280;65071;53.082;18.218;2022-11-20T11:32:11;100622.95;;;0.97;75.18
75551;BME280;65071;53.082;18.218;2022-11-20T11:34:38;100625.73;;;0.83;75.51
75551;BME280;65071;53.082;18.218;2022-11-20T11:37:04;100624.41;;;0.79;75.64
75551;BME280;65071;53.082;18.218;2022-11-20T11:39:38;100621.23;;;0.76;75.43
75551;BME280;65071;53.082;18.218;2022-11-20T11:42:12;100620.02;;;0.81;75.83
75551;BME280;65071;53.082;18.218;2022-11-20T11:44:44;100621.20;;;0.82;75.99
75551;BME280;65071;53.082;18.218;2022-11-20T11:53:14;100620.66;;;0.68;76.20
75551;BME280;65071;53.082;18.218;2022-11-20T11:55:45;100619.27;;;0.71;76.21
75551;BME280;65071;53.082;18.218;2022-11-20T12:00:45;100603.22;;;0.92;76.56
75551;BME280;65071;53.082;18.218;2022-11-20T12:03:19;100601.42;;;0.98;76.48
75551;BME280;65071;53.082;18.218;2022-11-20T12:06:11;100586.85;;;0.96;76.65
75551;BME280;65071;53.082;18.218;2022-11-20T12:08:50;100598.20;;;1.02;76.64
75551;BME280;65071;53.082;18.218;2022-11-20T12:11:24;100598.52;;;1.02;76.47
75551;BME280;65071;53.082;18.218;2022-11-20T12:16:27;100590.88;;;1.03;76.21
75551;BME280;65071;53.082;18.218;2022-11-20T12:18:55;100590.46;;;1.14;76.47
75551;BME280;65071;53.082;18.218;2022-11-20T12:21:43;100588.13;;;1.23;76.34
75551;BME280;65071;53.082;18.218;2022-11-20T12:24:39;100583.52;;;1.28;76.41
75551;BME280;65071;53.082;18.218;2022-11-20T12:43:47;100553.30;;;1.55;75.97
75551;BME280;65071;53.082;18.218;2022-11-20T12:46:46;100562.89;;;1.60;76.15
75551;BME280;65071;53.082;18.218;2022-11-20T12:49:34;100561.70;;;1.61;75.92
75551;BME280;65071;53.082;18.218;2022-11-20T13:06:51;100541.67;;;1.88;76.19
75551;BME280;65071;53.082;18.218;2022-11-20T13:09:19;100536.98;;;1.89;76.66
75551;BME280;65071;53.082;18.218;2022-11-20T13:12:05;100536.71;;;1.87;76.14
75551;BME280;65071;53.082;18.218;2022-11-20T13:19:55;100530.95;;;1.71;75.85
75551;BME280;65071;53.082;18.218;2022-11-20T13:22:29;100527.51;;;1.74;76.04
75551;BME280;65071;53.082;18.218;2022-11-20T13:25:25;100525.23;;;1.77;75.95
75551;BME280;65071;53.082;18.218;2022-11-20T13:27:54;100517.09;;;1.66;76.12
75551;BME280;65071;53.082;18.218;2022-11-20T13:30:25;100509.55;;;1.62;76.34
75551;BME280;65071;53.082;18.218;2022-11-20T13:32:55;100513.34;;;1.61;76.17
75551;BME280;65071;53.082;18.218;2022-11-20T13:35:29;100512.82;;;1.61;76.07
75551;BME280;65071;53.082;18.218;2022-11-20T13:38:20;100512.04;;;1.67;76.15
75551;BME280;65071;53.082;18.218;2022-11-20T13:43:36;100509.86;;;1.47;76.61
75551;BME280;65071;53.082;18.218;2022-11-20T13:46:08;100511.56;;;1.37;76.53
75551;BME280;65071;53.082;18.218;2022-11-20T13:48:39;100507.21;;;1.28;76.71
75551;BME280;65071;53.082;18.218;2022-11-20T13:51:33;100508.42;;;1.31;76.49
75551;BME280;65071;53.082;18.218;2022-11-20T14:02:01;100501.36;;;0.83;77.19
75551;BME280;65071;53.082;18.218;2022-11-20T14:04:35;100501.27;;;0.81;77.26
75551;BME280;65071;53.082;18.218;2022-11-20T14:07:06;100502.25;;;0.71;77.01
75551;BME280;65071;53.082;18.218;2022-11-20T14:09:33;100492.38;;;0.62;77.18
75551;BME280;65071;53.082;18.218;2022-11-20T14:12:00;100494.85;;;0.57;77.23
75551;BME280;65071;53.082;18.218;2022-11-20T14:14:29;100498.79;;;0.59;77.40
75551;BME280;65071;53.082;18.218;2022-11-20T14:17:07;100496.60;;;0.57;77.23
75551;BME280;65071;53.082;18.218;2022-11-20T14:19:33;100493.95;;;0.52;77.66
75551;BME280;65071;53.082;18.218;2022-11-20T14:22:16;100494.63;;;0.44;77.70
75551;BME280;65071;53.082;18.218;2022-11-20T14:24:47;100495.70;;;0.38;77.85
75551;BME280;65071;53.082;18.218;2022-11-20T14:27:19;100490.95;;;0.35;77.91
75551;BME280;65071;53.082;18.218;2022-11-20T14:29:47;100495.92;;;0.37;78.14
75551;BME280;65071;53.082;18.218;2022-11-20T14:32:20;100498.80;;;0.34;78.19
75551;BME280;65071;53.082;18.218;2022-11-20T14:34:49;100500.06;;;0.30;78.05
75551;BME280;65071;53.082;18.218;2022-11-20T14:37:24;100500.09;;;0.25;78.24